sensor_id;sensor_type;location;lat;lon;timestamp;P1;durP1;ratioP1;P2;durP2;ratioP2
12151;SDS011;6139;51.274;7.128;2022-12-08T00:00:17;24.63;;;18.47;;
12151;SDS011;6139;51.274;7.128;2022-12-08T00:01:19;27.70;;;19.63;;
12151;SDS011;6139;51.274;7.128;2022-12-08T00:02:22;23.27;;;18.83;;
12151;SDS011;6139;51.274;7.128;2022-12-08T00:03:23;26.80;;;18.37;;
12151;SDS011;6139;51.274;7.128;2022-12-08T00:04:25;21.43;;;19.17;;
12151;SDS011;6139;51.274;7.128;2022-12-08T00:05:26;23.40;;;18.93;;
12151;SDS011;6139;51.274;7.128;2022-12-08T00:06:45;28.33;;;19.63;;
12151;SDS011;6139;51.274;7.128;2022-12-08T00:08:14;24.40;;;18.50;;
12151;SDS011;6139;51.274;7.128;2022-12-08T00:09:34;22.30;;;18.07;;
12151;SDS011;6139;51.274;7.128;2022-12-08T00:10:37;24.10;;;19.07;;
12151;SDS011;6139;51.274;7.128;2022-12-08T00:11:38;24.87;;;17.93;;
12151;SDS011;6139;51.274;7.128;2022-12-08T00:12:40;20.73;;;17.63;;
12151;SDS011;6139;51.274;7.128;2022-12-08T00:13:41;23.53;;;19.07;;
12151;SDS011;6139;51.274;7.128;2022-12-08T00:14:44;22.73;;;18.07;;
12151;SDS011;6139;51.274;7.128;2022-12-08T00:15:47;23.47;;;18.67;;
12151;SDS011;6139;51.274;7.128;2022-12-08T00:16:49;24.73;;;18.27;;
12151;SDS011;6139;51.274;7.128;2022-12-08T00:17:50;23.17;;;17.77;;
12151;SDS011;6139;51.274;7.128;2022-12-08T00:18:52;23.40;;;18.40;;
12151;SDS011;6139;51.274;7.128;2022-12-08T00:19:53;21.73;;;18.00;;
12151;SDS011;6139;51.274;7.128;2022-12-08T00:20:55;20.40;;;17.87;;
12151;SDS011;6139;51.274;7.128;2022-12-08T00:21:57;23.23;;;18.20;;
12151;SDS011;6139;51.274;7.128;2022-12-08T00:22:59;22.23;;;17.43;;
12151;SDS011;6139;51.274;7.128;2022-12-08T00:24:00;21.63;;;17.80;;
12151;SDS011;6139;51.274;7.128;2022-12-08T00:25:03;24.63;;;18.60;;
12151;SDS011;6139;51.274;7.128;2022-12-08T00:26:04;20.03;;;17.83;;
12151;SDS011;6139;51.274;7.128;2022-12-08T00:27:07;22.37;;;17.73;;
12151;SDS011;6139;51.274;7.128;2022-12-08T00:28:09;22.07;;;17.50;;
12151;SDS011;6139;51.274;7.128;2022-12-08T00:29:11;21.87;;;17.13;;
12151;SDS011;6139;51.274;7.128;2022-12-08T00:30:13;24.40;;;18.47;;
12151;SDS011;6139;51.274;7.128;2022-12-08T00:31:16;24.53;;;18.97;;
12151;SDS011;6139;51.274;7.128;2022-12-08T00:32:17;22.00;;;17.90;;
12151;SDS011;6139;51.274;7.128;2022-12-08T00:33:19;20.50;;;18.00;;
12151;SDS011;6139;51.274;7.128;2022-12-08T00:34:20;22.67;;;18.57;;
12151;SDS011;6139;51.274;7.128;2022-12-08T00:35:22;21.77;;;17.83;;
12151;SDS011;6139;51.274;7.128;2022-12-08T00:36:23;21.53;;;17.70;;
12151;SDS011;6139;51.274;7.128;2022-12-08T00:37:25;24.30;;;17.87;;
12151;SDS011;6139;51.274;7.128;2022-12-08T00:38:26;24.33;;;17.13;;
12151;SDS011;6139;51.274;7.128;2022-12-08T00:39:28;23.53;;;18.00;;
12151;SDS011;6139;51.274;7.128;2022-12-08T00:40:29;22.70;;;18.37;;
12151;SDS011;6139;51.274;7.128;2022-12-08T00:41:31;22.40;;;17.00;;
12151;SDS011;6139;51.274;7.128;2022-12-08T00:42:50;24.47;;;17.70;;
12151;SDS011;6139;51.274;7.128;2022-12-08T00:43:52;23.07;;;17.83;;
12151;SDS011;6139;51.274;7.128;2022-12-08T00:44:53;22.57;;;17.40;;
12151;SDS011;6139;51.274;7.128;2022-12-08T00:45:55;21.30;;;17.97;;
12151;SDS011;6139;51.274;7.128;2022-12-08T00:46:57;19.17;;;16.60;;
12151;SDS011;6139;51.274;7.128;2022-12-08T00:47:59;19.30;;;16.50;;
12151;SDS011;6139;51.274;7.128;2022-12-08T00:49:00;23.07;;;17.63;;
12151;SDS011;6139;51.274;7.128;2022-12-08T00:50:02;22.53;;;16.93;;
12151;SDS011;6139;51.274;7.128;2022-12-08T00:51:04;20.33;;;17.07;;
12151;SDS011;6139;51.274;7.128;2022-12-08T00:52:06;27.17;;;18.83;;
12151;SDS011;6139;51.274;7.128;2022-12-08T00:53:07;23.90;;;18.07;;
12151;SDS011;6139;51.274;7.128;2022-12-08T00:54:09;24.33;;;17.77;;
12151;SDS011;6139;51.274;7.128;2022-12-08T00:55:10;20.93;;;16.60;;
12151;SDS011;6139;51.274;7.128;2022-12-08T00:56:12;20.97;;;17.47;;
12151;SDS011;6139;51.274;7.128;2022-12-08T00:57:13;21.20;;;16.97;;
12151;SDS011;6139;51.274;7.128;2022-12-08T00:58:15;22.67;;;17.60;;
12151;SDS011;6139;51.274;7.128;2022-12-08T00:59:16;23.53;;;17.03;;
12151;SDS011;6139;51.274;7.128;2022-12-08T01:00:18;21.77;;;17.63;;
12151;SDS011;6139;51.274;7.128;2022-12-08T01:01:20;20.70;;;17.10;;
12151;SDS011;6139;51.274;7.128;2022-12-08T01:02:23;19.10;;;16.27;;
12151;SDS011;6139;51.274;7.128;2022-12-08T01:03:24;23.37;;;16.67;;
12151;SDS011;6139;51.274;7.128;2022-12-08T01:04:26;19.80;;;16.53;;
12151;SDS011;6139;51.274;7.128;2022-12-08T01:05:27;21.13;;;16.80;;
12151;SDS011;6139;51.274;7.128;2022-12-08T01:06:29;21.50;;;15.60;;
12151;SDS011;6139;51.274;7.128;2022-12-08T01:07:30;22.80;;;16.20;;
12151;SDS011;6139;51.274;7.128;2022-12-08T01:08:32;19.83;;;16.10;;
12151;SDS011;6139;51.274;7.128;2022-12-08T01:09:35;23.53;;;16.93;;
12151;SDS011;6139;51.274;7.128;2022-12-08T01:10:38;20.50;;;16.43;;
12151;SDS011;6139;51.274;7.128;2022-12-08T01:11:39;23.93;;;17.63;;
12151;SDS011;6139;51.274;7.128;2022-12-08T01:12:41;20.70;;;16.63;;
12151;SDS011;6139;51.274;7.128;2022-12-08T01:13:42;20.57;;;16.20;;
12151;SDS011;6139;51.274;7.128;2022-12-08T01:14:44;21.43;;;16.50;;
12151;SDS011;6139;51.274;7.128;2022-12-08T01:15:45;23.00;;;17.00;;
12151;SDS011;6139;51.274;7.128;2022-12-08T01:16:47;23.33;;;17.53;;
12151;SDS011;6139;51.274;7.128;2022-12-08T01:17:49;19.83;;;17.03;;
12151;SDS011;6139;51.274;7.128;2022-12-08T01:18:52;21.27;;;17.30;;
12151;SDS011;6139;51.274;7.128;2022-12-08T01:19:54;22.50;;;17.37;;
12151;SDS011;6139;51.274;7.128;2022-12-08T01:21:00;22.57;;;17.37;;
12151;SDS011;6139;51.274;7.128;2022-12-08T01:22:02;24.20;;;18.23;;
12151;SDS011;6139;51.274;7.128;2022-12-08T01:23:04;20.90;;;16.83;;
12151;SDS011;6139;51.274;7.128;2022-12-08T01:24:05;20.20;;;16.87;;
12151;SDS011;6139;51.274;7.128;2022-12-08T01:25:08;22.13;;;16.47;;
12151;SDS011;6139;51.274;7.128;2022-12-08T01:26:09;19.33;;;17.23;;
12151;SDS011;6139;51.274;7.128;2022-12-08T01:27:13;24.90;;;17.57;;
12151;SDS011;6139;51.274;7.128;2022-12-08T01:28:15;20.37;;;16.67;;
12151;SDS011;6139;51.274;7.128;2022-12-08T01:29:16;22.60;;;16.53;;
12151;SDS011;6139;51.274;7.128;2022-12-08T01:30:18;22.00;;;17.27;;
12151;SDS011;6139;51.274;7.128;2022-12-08T01:31:20;22.70;;;16.27;;
12151;SDS011;6139;51.274;7.128;2022-12-08T01:32:22;22.70;;;16.17;;
12151;SDS011;6139;51.274;7.128;2022-12-08T01:33:25;21.07;;;16.83;;
12151;SDS011;6139;51.274;7.128;2022-12-08T01:34:27;22.33;;;16.00;;
12151;SDS011;6139;51.274;7.128;2022-12-08T01:35:29;24.17;;;16.73;;
12151;SDS011;6139;51.274;7.128;2022-12-08T01:36:30;21.10;;;15.77;;
12151;SDS011;6139;51.274;7.128;2022-12-08T01:37:33;20.27;;;16.00;;
12151;SDS011;6139;51.274;7.128;2022-12-08T01:38:34;20.10;;;15.40;;
12151;SDS011;6139;51.274;7.128;2022-12-08T01:39:36;21.37;;;16.13;;
12151;SDS011;6139;51.274;7.128;2022-12-08T01:40:37;20.33;;;15.97;;
12151;SDS011;6139;51.274;7.128;2022-12-08T01:41:40;18.07;;;13.60;;
12151;SDS011;6139;51.274;7.128;2022-12-08T01:42:42;15.57;;;13.53;;
12151;SDS011;6139;51.274;7.128;2022-12-08T01:43:49;17.10;;;14.17;;
12151;SDS011;6139;51.274;7.128;2022-12-08T01:44:56;17.73;;;13.63;;
12151;SDS011;6139;51.274;7.128;2022-12-08T01:46:01;22.43;;;14.30;;
12151;SDS011;6139;51.274;7.128;2022-12-08T01:47:02;18.23;;;13.57;;
12151;SDS011;6139;51.274;7.128;2022-12-08T01:48:06;15.13;;;13.27;;
12151;SDS011;6139;51.274;7.128;2022-12-08T01:49:11;15.43;;;13.73;;
12151;SDS011;6139;51.274;7.128;2022-12-08T01:50:16;16.37;;;13.00;;
12151;SDS011;6139;51.274;7.128;2022-12-08T01:51:20;17.27;;;14.07;;
12151;SDS011;6139;51.274;7.128;2022-12-08T01:52:22;17.80;;;13.70;;
12151;SDS011;6139;51.274;7.128;2022-12-08T01:53:27;18.83;;;13.93;;
12151;SDS011;6139;51.274;7.128;2022-12-08T01:54:32;20.00;;;14.13;;
12151;SDS011;6139;51.274;7.128;2022-12-08T01:55:38;16.53;;;13.53;;
12151;SDS011;6139;51.274;7.128;2022-12-08T01:56:42;19.27;;;14.83;;
12151;SDS011;6139;51.274;7.128;2022-12-08T01:57:49;18.93;;;14.23;;
12151;SDS011;6139;51.274;7.128;2022-12-08T01:58:53;17.97;;;14.20;;
12151;SDS011;6139;51.274;7.128;2022-12-08T01:59:58;18.83;;;13.90;;
12151;SDS011;6139;51.274;7.128;2022-12-08T02:01:01;19.40;;;14.37;;
12151;SDS011;6139;51.274;7.128;2022-12-08T02:02:03;17.83;;;14.20;;
12151;SDS011;6139;51.274;7.128;2022-12-08T02:03:05;18.23;;;15.00;;
12151;SDS011;6139;51.274;7.128;2022-12-08T02:04:12;20.13;;;15.07;;
12151;SDS011;6139;51.274;7.128;2022-12-08T02:05:13;18.10;;;15.23;;
12151;SDS011;6139;51.274;7.128;2022-12-08T02:06:16;23.03;;;15.97;;
12151;SDS011;6139;51.274;7.128;2022-12-08T02:07:18;22.43;;;14.97;;
12151;SDS011;6139;51.274;7.128;2022-12-08T02:08:22;20.03;;;14.87;;
12151;SDS011;6139;51.274;7.128;2022-12-08T02:09:23;18.97;;;14.90;;
12151;SDS011;6139;51.274;7.128;2022-12-08T02:10:26;20.30;;;15.47;;
12151;SDS011;6139;51.274;7.128;2022-12-08T02:11:28;19.90;;;16.03;;
12151;SDS011;6139;51.274;7.128;2022-12-08T02:12:30;21.10;;;16.33;;
12151;SDS011;6139;51.274;7.128;2022-12-08T02:13:32;21.37;;;15.93;;
12151;SDS011;6139;51.274;7.128;2022-12-08T02:14:33;22.70;;;16.67;;
12151;SDS011;6139;51.274;7.128;2022-12-08T02:15:36;19.67;;;15.90;;
12151;SDS011;6139;51.274;7.128;2022-12-08T02:16:48;21.83;;;17.00;;
12151;SDS011;6139;51.274;7.128;2022-12-08T02:17:57;19.83;;;16.10;;
12151;SDS011;6139;51.274;7.128;2022-12-08T02:19:21;19.83;;;15.77;;
12151;SDS011;6139;51.274;7.128;2022-12-08T02:20:44;26.70;;;16.37;;
12151;SDS011;6139;51.274;7.128;2022-12-08T02:21:55;22.67;;;17.17;;
12151;SDS011;6139;51.274;7.128;2022-12-08T02:23:06;20.50;;;16.30;;
12151;SDS011;6139;51.274;7.128;2022-12-08T02:24:13;24.67;;;17.53;;
12151;SDS011;6139;51.274;7.128;2022-12-08T02:25:25;28.20;;;18.77;;
12151;SDS011;6139;51.274;7.128;2022-12-08T02:26:46;25.67;;;17.60;;
12151;SDS011;6139;51.274;7.128;2022-12-08T02:28:20;22.57;;;17.33;;
12151;SDS011;6139;51.274;7.128;2022-12-08T02:29:51;24.37;;;17.67;;
12151;SDS011;6139;51.274;7.128;2022-12-08T02:31:19;25.17;;;17.37;;
12151;SDS011;6139;51.274;7.128;2022-12-08T02:32:42;24.13;;;18.03;;
12151;SDS011;6139;51.274;7.128;2022-12-08T02:34:12;25.73;;;17.73;;
12151;SDS011;6139;51.274;7.128;2022-12-08T02:35:19;24.07;;;17.93;;
12151;SDS011;6139;51.274;7.128;2022-12-08T02:36:25;22.07;;;17.53;;
12151;SDS011;6139;51.274;7.128;2022-12-08T02:37:32;24.63;;;18.63;;
12151;SDS011;6139;51.274;7.128;2022-12-08T02:38:42;23.60;;;17.83;;
12151;SDS011;6139;51.274;7.128;2022-12-08T02:39:48;27.37;;;18.60;;
12151;SDS011;6139;51.274;7.128;2022-12-08T02:40:58;26.90;;;18.20;;
12151;SDS011;6139;51.274;7.128;2022-12-08T02:42:07;25.13;;;18.33;;
12151;SDS011;6139;51.274;7.128;2022-12-08T02:43:17;24.83;;;18.47;;
12151;SDS011;6139;51.274;7.128;2022-12-08T02:44:23;24.37;;;17.90;;
12151;SDS011;6139;51.274;7.128;2022-12-08T02:45:30;27.20;;;18.70;;
12151;SDS011;6139;51.274;7.128;2022-12-08T02:46:37;24.93;;;19.47;;
12151;SDS011;6139;51.274;7.128;2022-12-08T02:47:41;26.00;;;19.03;;
12151;SDS011;6139;51.274;7.128;2022-12-08T02:48:43;26.70;;;18.30;;
12151;SDS011;6139;51.274;7.128;2022-12-08T02:49:47;25.03;;;18.90;;
12151;SDS011;6139;51.274;7.128;2022-12-08T02:50:49;26.27;;;18.97;;
12151;SDS011;6139;51.274;7.128;2022-12-08T02:51:50;25.27;;;18.43;;
12151;SDS011;6139;51.274;7.128;2022-12-08T02:52:52;24.03;;;19.40;;
12151;SDS011;6139;51.274;7.128;2022-12-08T02:53:53;24.80;;;18.97;;
12151;SDS011;6139;51.274;7.128;2022-12-08T02:54:56;26.23;;;19.63;;
12151;SDS011;6139;51.274;7.128;2022-12-08T02:56:02;26.60;;;19.47;;
12151;SDS011;6139;51.274;7.128;2022-12-08T02:57:18;25.17;;;18.67;;
12151;SDS011;6139;51.274;7.128;2022-12-08T02:58:31;25.97;;;18.60;;
12151;SDS011;6139;51.274;7.128;2022-12-08T03:00:01;22.53;;;16.57;;
12151;SDS011;6139;51.274;7.128;2022-12-08T03:01:13;24.90;;;17.80;;
12151;SDS011;6139;51.274;7.128;2022-12-08T03:02:28;24.87;;;17.90;;
12151;SDS011;6139;51.274;7.128;2022-12-08T03:03:42;22.97;;;17.77;;
12151;SDS011;6139;51.274;7.128;2022-12-08T03:04:52;23.20;;;17.27;;
12151;SDS011;6139;51.274;7.128;2022-12-08T03:05:59;26.37;;;17.37;;
12151;SDS011;6139;51.274;7.128;2022-12-08T03:07:09;22.57;;;17.27;;
12151;SDS011;6139;51.274;7.128;2022-12-08T03:08:15;23.63;;;17.60;;
12151;SDS011;6139;51.274;7.128;2022-12-08T03:09:23;24.87;;;17.83;;
12151;SDS011;6139;51.274;7.128;2022-12-08T03:10:31;24.57;;;17.50;;
12151;SDS011;6139;51.274;7.128;2022-12-08T03:11:39;25.40;;;16.87;;
12151;SDS011;6139;51.274;7.128;2022-12-08T03:12:45;23.10;;;16.70;;
12151;SDS011;6139;51.274;7.128;2022-12-08T03:13:50;23.97;;;17.63;;
12151;SDS011;6139;51.274;7.128;2022-12-08T03:14:55;22.63;;;16.97;;
12151;SDS011;6139;51.274;7.128;2022-12-08T03:16:00;28.03;;;18.67;;
12151;SDS011;6139;51.274;7.128;2022-12-08T03:17:03;25.17;;;18.30;;
12151;SDS011;6139;51.274;7.128;2022-12-08T03:18:05;23.67;;;17.73;;
12151;SDS011;6139;51.274;7.128;2022-12-08T03:19:12;26.90;;;17.80;;
12151;SDS011;6139;51.274;7.128;2022-12-08T03:20:19;24.83;;;18.00;;
12151;SDS011;6139;51.274;7.128;2022-12-08T03:21:24;22.57;;;17.60;;
12151;SDS011;6139;51.274;7.128;2022-12-08T03:22:26;23.13;;;17.67;;
12151;SDS011;6139;51.274;7.128;2022-12-08T03:23:29;23.63;;;18.07;;
12151;SDS011;6139;51.274;7.128;2022-12-08T03:24:31;22.00;;;17.27;;
12151;SDS011;6139;51.274;7.128;2022-12-08T03:25:35;23.27;;;16.57;;
12151;SDS011;6139;51.274;7.128;2022-12-08T03:26:42;21.17;;;16.87;;
12151;SDS011;6139;51.274;7.128;2022-12-08T03:27:48;27.07;;;17.63;;
12151;SDS011;6139;51.274;7.128;2022-12-08T03:28:50;21.10;;;16.50;;
12151;SDS011;6139;51.274;7.128;2022-12-08T03:29:53;23.70;;;16.77;;
12151;SDS011;6139;51.274;7.128;2022-12-08T03:30:56;21.97;;;16.07;;
12151;SDS011;6139;51.274;7.128;2022-12-08T03:32:05;21.70;;;16.07;;
12151;SDS011;6139;51.274;7.128;2022-12-08T03:33:13;21.30;;;15.70;;
12151;SDS011;6139;51.274;7.128;2022-12-08T03:34:18;20.57;;;14.93;;
12151;SDS011;6139;51.274;7.128;2022-12-08T03:35:22;23.27;;;16.13;;
12151;SDS011;6139;51.274;7.128;2022-12-08T03:36:27;18.70;;;14.37;;
12151;SDS011;6139;51.274;7.128;2022-12-08T03:37:28;22.73;;;15.27;;
12151;SDS011;6139;51.274;7.128;2022-12-08T03:38:36;20.87;;;15.70;;
12151;SDS011;6139;51.274;7.128;2022-12-08T03:39:38;20.20;;;14.70;;
12151;SDS011;6139;51.274;7.128;2022-12-08T03:40:40;20.87;;;15.00;;
12151;SDS011;6139;51.274;7.128;2022-12-08T03:41:41;18.40;;;14.10;;
12151;SDS011;6139;51.274;7.128;2022-12-08T03:42:43;20.33;;;14.37;;
12151;SDS011;6139;51.274;7.128;2022-12-08T03:43:45;23.83;;;15.43;;
12151;SDS011;6139;51.274;7.128;2022-12-08T03:44:47;18.67;;;14.27;;
12151;SDS011;6139;51.274;7.128;2022-12-08T03:45:48;21.20;;;14.63;;
12151;SDS011;6139;51.274;7.128;2022-12-08T03:46:50;18.23;;;14.03;;
12151;SDS011;6139;51.274;7.128;2022-12-08T03:47:51;18.40;;;14.53;;
12151;SDS011;6139;51.274;7.128;2022-12-08T03:48:53;19.40;;;14.27;;
12151;SDS011;6139;51.274;7.128;2022-12-08T03:49:54;19.00;;;13.70;;
12151;SDS011;6139;51.274;7.128;2022-12-08T03:50:58;20.20;;;14.60;;
12151;SDS011;6139;51.274;7.128;2022-12-08T03:51:59;18.43;;;14.00;;
12151;SDS011;6139;51.274;7.128;2022-12-08T03:53:01;19.83;;;14.20;;
12151;SDS011;6139;51.274;7.128;2022-12-08T03:54:02;18.40;;;13.63;;
12151;SDS011;6139;51.274;7.128;2022-12-08T03:55:05;17.47;;;13.50;;
12151;SDS011;6139;51.274;7.128;2022-12-08T03:57:15;17.47;;;12.93;;
12151;SDS011;6139;51.274;7.128;2022-12-08T03:58:17;16.03;;;12.17;;
12151;SDS011;6139;51.274;7.128;2022-12-08T03:59:18;18.97;;;12.57;;
12151;SDS011;6139;51.274;7.128;2022-12-08T04:00:20;18.60;;;12.90;;
12151;SDS011;6139;51.274;7.128;2022-12-08T04:01:21;17.33;;;12.67;;
12151;SDS011;6139;51.274;7.128;2022-12-08T04:02:23;15.33;;;12.90;;
12151;SDS011;6139;51.274;7.128;2022-12-08T04:03:24;17.20;;;12.60;;
12151;SDS011;6139;51.274;7.128;2022-12-08T04:04:26;16.17;;;12.80;;
12151;SDS011;6139;51.274;7.128;2022-12-08T04:05:28;15.33;;;12.37;;
12151;SDS011;6139;51.274;7.128;2022-12-08T04:06:31;17.43;;;13.27;;
12151;SDS011;6139;51.274;7.128;2022-12-08T04:07:33;16.37;;;12.93;;
12151;SDS011;6139;51.274;7.128;2022-12-08T04:08:34;19.07;;;12.77;;
12151;SDS011;6139;51.274;7.128;2022-12-08T04:09:36;16.80;;;12.70;;
12151;SDS011;6139;51.274;7.128;2022-12-08T04:10:38;17.90;;;13.17;;
12151;SDS011;6139;51.274;7.128;2022-12-08T04:11:40;17.03;;;12.50;;
12151;SDS011;6139;51.274;7.128;2022-12-08T04:12:41;18.30;;;13.27;;
12151;SDS011;6139;51.274;7.128;2022-12-08T04:13:43;16.80;;;13.20;;
12151;SDS011;6139;51.274;7.128;2022-12-08T04:14:44;15.93;;;13.27;;
12151;SDS011;6139;51.274;7.128;2022-12-08T04:15:47;17.03;;;13.33;;
12151;SDS011;6139;51.274;7.128;2022-12-08T04:16:48;15.60;;;12.97;;
12151;SDS011;6139;51.274;7.128;2022-12-08T04:17:50;17.10;;;13.27;;
12151;SDS011;6139;51.274;7.128;2022-12-08T04:18:51;16.70;;;13.33;;
12151;SDS011;6139;51.274;7.128;2022-12-08T04:19:53;20.53;;;13.80;;
12151;SDS011;6139;51.274;7.128;2022-12-08T04:20:54;16.63;;;12.60;;
12151;SDS011;6139;51.274;7.128;2022-12-08T04:21:57;14.97;;;12.90;;
12151;SDS011;6139;51.274;7.128;2022-12-08T04:22:58;15.50;;;12.90;;
12151;SDS011;6139;51.274;7.128;2022-12-08T04:24:00;19.50;;;13.97;;
12151;SDS011;6139;51.274;7.128;2022-12-08T04:25:02;19.47;;;13.23;;
12151;SDS011;6139;51.274;7.128;2022-12-08T04:26:04;16.90;;;12.60;;
12151;SDS011;6139;51.274;7.128;2022-12-08T04:27:06;16.37;;;12.77;;
12151;SDS011;6139;51.274;7.128;2022-12-08T04:28:07;15.07;;;12.33;;
12151;SDS011;6139;51.274;7.128;2022-12-08T04:29:09;15.97;;;12.60;;
12151;SDS011;6139;51.274;7.128;2022-12-08T04:30:11;16.83;;;12.60;;
12151;SDS011;6139;51.274;7.128;2022-12-08T04:31:12;17.77;;;12.93;;
12151;SDS011;6139;51.274;7.128;2022-12-08T04:32:14;17.03;;;12.30;;
12151;SDS011;6139;51.274;7.128;2022-12-08T04:33:15;16.10;;;12.67;;
12151;SDS011;6139;51.274;7.128;2022-12-08T04:34:17;16.50;;;13.67;;
12151;SDS011;6139;51.274;7.128;2022-12-08T04:35:18;16.13;;;12.90;;
12151;SDS011;6139;51.274;7.128;2022-12-08T04:36:20;17.17;;;12.90;;
12151;SDS011;6139;51.274;7.128;2022-12-08T04:37:22;14.33;;;11.77;;
12151;SDS011;6139;51.274;7.128;2022-12-08T04:38:24;14.60;;;11.80;;
12151;SDS011;6139;51.274;7.128;2022-12-08T04:39:25;17.20;;;12.50;;
12151;SDS011;6139;51.274;7.128;2022-12-08T04:40:27;16.90;;;13.67;;
12151;SDS011;6139;51.274;7.128;2022-12-08T04:41:28;17.80;;;11.97;;
12151;SDS011;6139;51.274;7.128;2022-12-08T04:42:30;15.87;;;12.70;;
12151;SDS011;6139;51.274;7.128;2022-12-08T04:43:31;17.60;;;12.97;;
12151;SDS011;6139;51.274;7.128;2022-12-08T04:44:33;16.73;;;12.67;;
12151;SDS011;6139;51.274;7.128;2022-12-08T04:45:34;15.37;;;12.83;;
12151;SDS011;6139;51.274;7.128;2022-12-08T04:46:39;19.03;;;13.27;;
12151;SDS011;6139;51.274;7.128;2022-12-08T04:47:40;15.13;;;12.27;;
12151;SDS011;6139;51.274;7.128;2022-12-08T04:48:42;14.93;;;12.23;;
12151;SDS011;6139;51.274;7.128;2022-12-08T04:49:43;16.73;;;11.77;;
12151;SDS011;6139;51.274;7.128;2022-12-08T04:50:44;16.50;;;12.90;;
12151;SDS011;6139;51.274;7.128;2022-12-08T04:51:45;15.20;;;12.33;;
12151;SDS011;6139;51.274;7.128;2022-12-08T04:52:49;14.23;;;11.30;;
12151;SDS011;6139;51.274;7.128;2022-12-08T04:53:50;14.17;;;11.83;;
12151;SDS011;6139;51.274;7.128;2022-12-08T04:54:52;14.87;;;11.73;;
12151;SDS011;6139;51.274;7.128;2022-12-08T04:55:53;16.03;;;12.00;;
12151;SDS011;6139;51.274;7.128;2022-12-08T04:56:55;16.03;;;11.70;;
12151;SDS011;6139;51.274;7.128;2022-12-08T04:57:56;15.03;;;11.70;;
12151;SDS011;6139;51.274;7.128;2022-12-08T04:58:58;15.20;;;11.63;;
12151;SDS011;6139;51.274;7.128;2022-12-08T04:59:58;17.00;;;11.40;;
12151;SDS011;6139;51.274;7.128;2022-12-08T05:01:00;15.77;;;11.80;;
12151;SDS011;6139;51.274;7.128;2022-12-08T05:02:01;13.10;;;11.27;;
12151;SDS011;6139;51.274;7.128;2022-12-08T05:03:03;13.83;;;11.07;;
12151;SDS011;6139;51.274;7.128;2022-12-08T05:04:04;14.87;;;11.00;;
12151;SDS011;6139;51.274;7.128;2022-12-08T05:05:06;16.37;;;11.00;;
12151;SDS011;6139;51.274;7.128;2022-12-08T05:06:09;18.60;;;10.90;;
12151;SDS011;6139;51.274;7.128;2022-12-08T05:07:11;13.67;;;10.67;;
12151;SDS011;6139;51.274;7.128;2022-12-08T05:08:15;16.33;;;10.97;;
12151;SDS011;6139;51.274;7.128;2022-12-08T05:09:16;12.60;;;9.87;;
12151;SDS011;6139;51.274;7.128;2022-12-08T05:10:18;12.27;;;10.43;;
12151;SDS011;6139;51.274;7.128;2022-12-08T05:11:19;14.17;;;10.57;;
12151;SDS011;6139;51.274;7.128;2022-12-08T05:12:21;12.23;;;10.67;;
12151;SDS011;6139;51.274;7.128;2022-12-08T05:13:22;12.70;;;9.73;;
12151;SDS011;6139;51.274;7.128;2022-12-08T05:14:24;15.17;;;10.27;;
12151;SDS011;6139;51.274;7.128;2022-12-08T05:15:25;12.00;;;10.37;;
12151;SDS011;6139;51.274;7.128;2022-12-08T05:16:27;13.10;;;10.37;;
12151;SDS011;6139;51.274;7.128;2022-12-08T05:17:27;12.17;;;9.77;;
12151;SDS011;6139;51.274;7.128;2022-12-08T05:18:29;12.37;;;9.60;;
12151;SDS011;6139;51.274;7.128;2022-12-08T05:19:31;12.27;;;10.30;;
12151;SDS011;6139;51.274;7.128;2022-12-08T05:20:33;13.20;;;10.43;;
12151;SDS011;6139;51.274;7.128;2022-12-08T05:21:35;12.13;;;10.30;;
12151;SDS011;6139;51.274;7.128;2022-12-08T05:22:36;12.37;;;10.43;;
12151;SDS011;6139;51.274;7.128;2022-12-08T05:23:39;11.10;;;9.10;;
12151;SDS011;6139;51.274;7.128;2022-12-08T05:24:40;12.37;;;9.60;;
12151;SDS011;6139;51.274;7.128;2022-12-08T05:25:42;11.67;;;9.60;;
12151;SDS011;6139;51.274;7.128;2022-12-08T05:26:43;11.90;;;9.30;;
12151;SDS011;6139;51.274;7.128;2022-12-08T05:27:45;11.57;;;9.37;;
12151;SDS011;6139;51.274;7.128;2022-12-08T05:28:46;11.50;;;9.33;;
12151;SDS011;6139;51.274;7.128;2022-12-08T05:29:48;9.67;;;8.53;;
12151;SDS011;6139;51.274;7.128;2022-12-08T05:30:49;12.43;;;9.63;;
12151;SDS011;6139;51.274;7.128;2022-12-08T05:31:51;9.80;;;8.80;;
12151;SDS011;6139;51.274;7.128;2022-12-08T05:32:52;10.60;;;8.57;;
12151;SDS011;6139;51.274;7.128;2022-12-08T05:33:54;10.20;;;8.87;;
12151;SDS011;6139;51.274;7.128;2022-12-08T05:34:55;9.33;;;8.10;;
12151;SDS011;6139;51.274;7.128;2022-12-08T05:35:57;12.07;;;9.80;;
12151;SDS011;6139;51.274;7.128;2022-12-08T05:36:58;10.47;;;8.83;;
12151;SDS011;6139;51.274;7.128;2022-12-08T05:38:00;11.43;;;8.87;;
12151;SDS011;6139;51.274;7.128;2022-12-08T05:39:02;10.80;;;9.60;;
12151;SDS011;6139;51.274;7.128;2022-12-08T05:40:04;11.97;;;9.30;;
12151;SDS011;6139;51.274;7.128;2022-12-08T05:41:06;11.57;;;9.93;;
12151;SDS011;6139;51.274;7.128;2022-12-08T05:42:09;10.67;;;9.57;;
12151;SDS011;6139;51.274;7.128;2022-12-08T05:43:10;11.77;;;9.80;;
12151;SDS011;6139;51.274;7.128;2022-12-08T05:44:12;13.87;;;10.50;;
12151;SDS011;6139;51.274;7.128;2022-12-08T05:45:13;12.23;;;10.10;;
12151;SDS011;6139;51.274;7.128;2022-12-08T05:46:15;12.47;;;10.53;;
12151;SDS011;6139;51.274;7.128;2022-12-08T05:47:17;12.07;;;10.13;;
12151;SDS011;6139;51.274;7.128;2022-12-08T05:48:19;12.60;;;10.07;;
12151;SDS011;6139;51.274;7.128;2022-12-08T05:49:20;13.87;;;11.70;;
12151;SDS011;6139;51.274;7.128;2022-12-08T05:50:21;13.43;;;11.57;;
12151;SDS011;6139;51.274;7.128;2022-12-08T05:51:23;14.60;;;12.40;;
12151;SDS011;6139;51.274;7.128;2022-12-08T05:52:25;14.63;;;11.83;;
12151;SDS011;6139;51.274;7.128;2022-12-08T05:53:26;14.93;;;12.37;;
12151;SDS011;6139;51.274;7.128;2022-12-08T05:54:30;14.17;;;11.80;;
12151;SDS011;6139;51.274;7.128;2022-12-08T05:55:30;14.60;;;11.77;;
12151;SDS011;6139;51.274;7.128;2022-12-08T05:56:32;15.00;;;12.47;;
12151;SDS011;6139;51.274;7.128;2022-12-08T05:57:33;15.70;;;12.23;;
12151;SDS011;6139;51.274;7.128;2022-12-08T05:58:36;15.63;;;12.00;;
12151;SDS011;6139;51.274;7.128;2022-12-08T05:59:37;15.30;;;12.60;;
12151;SDS011;6139;51.274;7.128;2022-12-08T06:00:39;16.07;;;12.63;;
12151;SDS011;6139;51.274;7.128;2022-12-08T06:01:41;15.70;;;12.53;;
12151;SDS011;6139;51.274;7.128;2022-12-08T06:02:43;16.03;;;12.10;;
12151;SDS011;6139;51.274;7.128;2022-12-08T06:03:44;16.07;;;13.37;;
12151;SDS011;6139;51.274;7.128;2022-12-08T06:04:46;17.60;;;14.17;;
12151;SDS011;6139;51.274;7.128;2022-12-08T06:05:48;17.70;;;13.17;;
12151;SDS011;6139;51.274;7.128;2022-12-08T06:06:49;17.83;;;13.00;;
12151;SDS011;6139;51.274;7.128;2022-12-08T06:07:51;19.50;;;14.47;;
12151;SDS011;6139;51.274;7.128;2022-12-08T06:08:52;15.00;;;12.97;;
12151;SDS011;6139;51.274;7.128;2022-12-08T06:09:56;18.17;;;13.37;;
12151;SDS011;6139;51.274;7.128;2022-12-08T06:10:56;20.93;;;14.20;;
12151;SDS011;6139;51.274;7.128;2022-12-08T06:11:59;18.20;;;14.50;;
12151;SDS011;6139;51.274;7.128;2022-12-08T06:13:01;22.00;;;15.27;;
12151;SDS011;6139;51.274;7.128;2022-12-08T06:14:02;18.50;;;14.43;;
12151;SDS011;6139;51.274;7.128;2022-12-08T06:15:04;19.60;;;14.53;;
12151;SDS011;6139;51.274;7.128;2022-12-08T06:16:06;19.27;;;14.23;;
12151;SDS011;6139;51.274;7.128;2022-12-08T06:17:08;18.87;;;14.83;;
12151;SDS011;6139;51.274;7.128;2022-12-08T06:18:09;19.83;;;14.67;;
12151;SDS011;6139;51.274;7.128;2022-12-08T06:19:11;18.77;;;14.37;;